Sullivan, IL

3:59 PM CST on February 01, 2015 (GMT -0600)
Coles County Memorial | Change Station
CLOSE
Current Station
Airport
Location: Mattoon,
Elevation: 722 ft
Nearby Weather Stations
Active Advisory: Winter Weather Advisory

Elev 722 ft 39.47 °N, 88.27 °W | Updated 9 minutes ago

Overcast
Overcast
36 °F
Feels Like 31 °F
N
6
Wind Variable Wind from WSW

Today
High -- | Low -- °F
--% Chance of Precip.
Yesterday
High -- | Low -- °F
Precip. -- in
7:02 AM 5:14 PM
Waxing Gibbous, 96% visible
Pressure 29.59 in
Visibility 5.0 miles
Clouds Mostly Cloudy 700 ft
Overcast 1000 ft
Windchill 31 °F
Dew Point 34 °F
Humidity 93%
Rainfall 0.16 in
Snow Depth Not available.
UV 0 out of 12
Pollen .10 out of 12
Air Quality Not available.
Flu Activity Not available.
METAR KMTO 012150Z AUTO 25005KT 5SM BR BKN007 OVC010 02/01 A2959 RMK AO2 RAE28UPB25E27 CIG 002V009 P0000

More Conditions Fewer Conditions

Pressure 29.59 in
Visibility 5.0 miles
Clouds Mostly Cloudy 700 ft
Overcast 1000 ft
Windchill 31 °F
Dew Point 34 °F
Humidity 93%
Rainfall 0.16 in
Snow Depth Not available.
UV 0 out of 12
Pollen .10 out of 12
Air Quality Not available.
Flu Activity Not available.
METAR KMTO 012150Z AUTO 25005KT 5SM BR BKN007 OVC010 02/01 A2959 RMK AO2 RAE28UPB25E27 CIG 002V009 P0000

More Conditions Fewer Conditions

10-Day Weather Forecast

Almanac

Astronomy

Feb. 01, 2015 Rise Set
Actual Time
Civil Twilight
Nautical Twilight
Astronomical Twilight
Moon
Length of Visible Light
Length of Day
Tomorrow will be .
, % of the Moon is Illuminated

Today's Extremes

State Highs State Lows

Community

WunderPhotos

Upload Photos

1,792,555 photos uploaded!

WunderBlogs® & News

Nearby

Air Quality

  Air Quality AQ Index Pollutant
Not available.

Snow Depth

Station Depth Elevation

Earthquake Activity

City Distance Mag. Time & Date
Minimum magnitude displayed is 2.5.

Coastal Water Temperatures

Place Temperature

Nearby Weather Stations